createdAt,value
2017-08-02T00:00:17.888Z,14.36
2017-08-02T00:01:27.841Z,14.38
2017-08-02T00:02:37.813Z,14.3
2017-08-02T00:03:48.086Z,14.25
2017-08-02T00:04:57.723Z,14.19
2017-08-02T00:06:07.362Z,14.22
2017-08-02T00:07:17.316Z,14.12
2017-08-02T00:08:27.582Z,14.08
2017-08-02T00:09:37.855Z,14.2
2017-08-02T00:10:47.826Z,14.22
2017-08-02T00:11:58.100Z,14.15
2017-08-02T00:13:08.369Z,14.15
2017-08-02T00:14:18.637Z,14.22
2017-08-02T00:15:28.906Z,14.15
2017-08-02T00:16:39.175Z,14.22
2017-08-02T00:17:49.441Z,14.19
2017-08-02T00:18:59.718Z,14.16
2017-08-02T00:20:09.988Z,14.13
2017-08-02T00:21:19.942Z,14.13
2017-08-02T00:22:29.583Z,14.12
2017-08-02T00:23:39.851Z,14.11
2017-08-02T00:24:50.113Z,14.15
2017-08-02T00:26:00.074Z,14.25
2017-08-02T00:27:10.346Z,14.05
2017-08-02T00:28:20.619Z,14.08
2017-08-02T00:29:30.891Z,14.15
2017-08-02T00:30:40.852Z,14.12
2017-08-02T00:31:51.125Z,14.05
2017-08-02T00:33:01.401Z,14.11
2017-08-02T00:34:11.363Z,14.08
2017-08-02T00:35:21.000Z,14.11
2017-08-02T00:36:31.269Z,14.07
2017-08-02T00:37:41.219Z,14.15
2017-08-02T00:38:51.484Z,14.16
2017-08-02T00:40:01.435Z,14.18
2017-08-02T00:41:11.709Z,14.08
2017-08-02T00:42:21.979Z,14.12
2017-08-02T00:43:31.933Z,14.07
2017-08-02T00:44:42.209Z,14.12
2017-08-02T00:45:52.477Z,14.12
2017-08-02T00:47:02.743Z,14.07
2017-08-02T00:48:12.702Z,14.11
2017-08-02T00:49:22.969Z,14.05
2017-08-02T00:50:33.238Z,14.08
2017-08-02T00:51:43.507Z,14.04
2017-08-02T00:52:53.466Z,14.08
2017-08-02T00:54:03.423Z,14.08
2017-08-02T00:55:13.697Z,13.97
2017-08-02T00:56:23.966Z,14.07
2017-08-02T00:57:34.235Z,13.95
2017-08-02T00:58:44.505Z,14.07
2017-08-02T00:59:54.142Z,14.11
2017-08-02T01:01:03.785Z,14.05
2017-08-02T01:02:14.059Z,14.07
2017-08-02T01:03:24.023Z,14.04
2017-08-02T01:04:34.291Z,13.98
2017-08-02T01:05:44.262Z,14.01
2017-08-02T01:06:54.535Z,14.04
2017-08-02T01:08:04.489Z,14.05
2017-08-02T01:09:14.754Z,14.07
2017-08-02T01:10:24.714Z,14.03
2017-08-02T01:11:34.986Z,14.07
2017-08-02T01:12:44.943Z,14
2017-08-02T01:13:54.895Z,13.97
2017-08-02T01:15:04.850Z,13.93
2017-08-02T01:16:15.133Z,13.93
2017-08-02T01:17:25.405Z,13.94
2017-08-02T01:18:35.358Z,13.93
2017-08-02T01:19:45.629Z,13.94
2017-08-02T01:20:55.898Z,14.05
2017-08-02T01:22:06.172Z,14.13
2017-08-02T01:23:16.443Z,14.08
2017-08-02T01:24:26.719Z,14.05
2017-08-02T01:25:36.682Z,14.12
2017-08-02T01:26:46.949Z,14.13
2017-08-02T01:27:57.216Z,14.07
2017-08-02T01:29:07.487Z,14.11
2017-08-02T01:30:17.466Z,14.12
2017-08-02T01:31:27.417Z,14.16
2017-08-02T01:32:37.367Z,14.01
2017-08-02T01:33:47.329Z,14.04
2017-08-02T01:34:57.603Z,14.08
2017-08-02T01:36:07.872Z,14.03
2017-08-02T01:37:17.827Z,13.95
2017-08-02T01:38:27.783Z,14
2017-08-02T01:39:37.737Z,13.87
2017-08-02T01:40:47.690Z,13.86
2017-08-02T01:41:57.956Z,13.91
2017-08-02T01:43:08.230Z,13.83
2017-08-02T01:44:18.505Z,13.79
2017-08-02T01:45:28.468Z,13.8
2017-08-02T01:46:38.738Z,13.8
2017-08-02T01:47:49.007Z,13.8
2017-08-02T01:48:58.963Z,13.83
2017-08-02T01:50:08.920Z,13.75
2017-08-02T01:51:19.189Z,13.79
2017-08-02T01:52:29.139Z,13.7
2017-08-02T01:53:39.409Z,13.65
2017-08-02T01:54:49.057Z,13.67
2017-08-02T01:55:59.325Z,13.6
2017-08-02T01:57:09.593Z,13.6
2017-08-02T01:58:19.550Z,13.62
2017-08-02T01:59:29.824Z,13.65
2017-08-02T02:00:40.092Z,13.47
2017-08-02T02:01:50.374Z,13.49
2017-08-02T02:03:00.332Z,13.54
2017-08-02T02:04:10.282Z,13.57
2017-08-02T02:05:20.548Z,13.49
2017-08-02T02:06:30.815Z,13.47
2017-08-02T02:07:41.095Z,13.46
2017-08-02T02:08:51.366Z,13.46
2017-08-02T02:10:01.321Z,13.43
2017-08-02T02:11:11.597Z,13.46
2017-08-02T02:12:21.553Z,13.4
2017-08-02T02:13:31.507Z,13.54
2017-08-02T02:14:41.775Z,13.45
2017-08-02T02:15:51.729Z,13.31
2017-08-02T02:17:02.003Z,13.3
2017-08-02T02:18:12.275Z,13.39
2017-08-02T02:19:22.541Z,13.4
2017-08-02T02:20:32.809Z,13.39
2017-08-02T02:21:43.071Z,13.31
2017-08-02T02:22:53.340Z,13.33
2017-08-02T02:24:03.295Z,13.37
2017-08-02T02:25:13.565Z,13.28
2017-08-02T02:26:23.830Z,13.3
2017-08-02T02:27:34.098Z,13.31
2017-08-02T02:28:44.055Z,13.27
2017-08-02T02:29:54.354Z,13.28
2017-08-02T02:31:04.307Z,13.24
2017-08-02T02:32:14.581Z,13.16
2017-08-02T02:33:24.536Z,13.17
2017-08-02T02:34:34.514Z,13.13
2017-08-02T02:35:44.784Z,13.16
2017-08-02T02:36:55.055Z,13.08
2017-08-02T02:38:04.699Z,13.12
2017-08-02T02:39:14.341Z,13.06
2017-08-02T02:40:24.627Z,13.03
2017-08-02T02:41:34.584Z,13.01
2017-08-02T02:42:44.542Z,12.98
2017-08-02T02:43:54.177Z,12.99
2017-08-02T02:45:03.826Z,13.02
2017-08-02T02:46:14.208Z,12.9
2017-08-02T02:47:24.184Z,12.84
2017-08-02T02:48:34.449Z,12.78
2017-08-02T02:49:44.401Z,12.81
2017-08-02T02:50:54.671Z,12.75
2017-08-02T02:52:03.999Z,12.8
2017-08-02T02:53:14.274Z,12.66
2017-08-02T02:54:24.540Z,12.69
2017-08-02T02:55:34.807Z,12.69
2017-08-02T02:56:45.077Z,12.63
2017-08-02T02:57:55.033Z,12.63
2017-08-02T02:59:05.305Z,12.62
2017-08-02T03:00:15.571Z,12.62
2017-08-02T03:01:25.836Z,12.62
2017-08-02T03:02:35.788Z,12.65
2017-08-02T03:03:45.743Z,12.62
2017-08-02T03:04:55.698Z,12.63
2017-08-02T03:06:05.965Z,12.62
2017-08-02T03:07:16.237Z,12.62
2017-08-02T03:08:26.204Z,12.66
2017-08-02T03:09:36.472Z,12.62
2017-08-02T03:10:46.737Z,12.54
2017-08-02T03:11:56.693Z,12.55
2017-08-02T03:13:06.961Z,12.54
2017-08-02T03:14:17.241Z,12.51
2017-08-02T03:15:27.218Z,12.5
2017-08-02T03:16:37.486Z,12.4
2017-08-02T03:17:47.751Z,12.43
2017-08-02T03:18:58.023Z,12.32
2017-08-02T03:20:08.337Z,12.35
2017-08-02T03:21:18.307Z,12.37
2017-08-02T03:22:28.264Z,12.32
2017-08-02T03:23:38.540Z,12.39
2017-08-02T03:24:48.815Z,12.32
2017-08-02T03:25:59.101Z,12.26
2017-08-02T03:27:09.377Z,12.26
2017-08-02T03:28:19.330Z,12.28
2017-08-02T03:29:29.597Z,12.14
2017-08-02T03:30:39.874Z,12.21
2017-08-02T03:31:50.153Z,12.15
2017-08-02T03:32:59.789Z,12.21
2017-08-02T03:34:09.742Z,12.21
2017-08-02T03:35:20.014Z,12.17
2017-08-02T03:36:30.294Z,12.2
2017-08-02T03:37:40.564Z,12.18
2017-08-02T03:38:50.848Z,12.14
2017-08-02T03:40:00.489Z,12.2
2017-08-02T03:41:10.130Z,12.29
2017-08-02T03:42:19.772Z,12.35
2017-08-02T03:43:29.728Z,12.28
2017-08-02T03:44:40.000Z,12.23
2017-08-02T03:45:50.277Z,12.25
2017-08-02T03:47:00.553Z,12.4
2017-08-02T03:48:10.824Z,12.39
2017-08-02T03:49:21.103Z,12.35
2017-08-02T03:50:31.056Z,12.4
2017-08-02T03:51:41.007Z,12.33
2017-08-02T03:52:51.277Z,12.43
2017-08-02T03:54:01.554Z,12.48
2017-08-02T03:55:11.821Z,12.39
2017-08-02T03:56:22.094Z,12.51
2017-08-02T03:57:32.045Z,12.54
2017-08-02T03:58:42.314Z,12.55
2017-08-02T03:59:52.586Z,12.62
2017-08-02T04:01:02.864Z,12.66
2017-08-02T04:02:12.818Z,12.62
2017-08-02T04:03:22.463Z,12.65
2017-08-02T04:04:32.734Z,12.81
2017-08-02T04:05:43.022Z,12.86
2017-08-02T04:06:52.975Z,12.84
2017-08-02T04:08:02.614Z,12.98
2017-08-02T04:09:12.890Z,13.02
2017-08-02T04:10:23.162Z,12.94
2017-08-02T04:11:33.117Z,13.03
2017-08-02T04:12:43.391Z,13.03
2017-08-02T04:13:53.670Z,13.02
2017-08-02T04:15:03.938Z,13.11
2017-08-02T04:16:14.203Z,13.12
2017-08-02T04:17:24.487Z,13.09
2017-08-02T04:18:34.438Z,13.13
2017-08-02T04:19:44.707Z,13.17
2017-08-02T04:20:54.658Z,13.17
2017-08-02T04:22:04.929Z,13.19
2017-08-02T04:23:14.883Z,13.2
2017-08-02T04:24:25.178Z,13.24
2017-08-02T04:25:35.450Z,13.36
2017-08-02T04:26:45.407Z,13.17
2017-08-02T04:27:55.055Z,13.27
2017-08-02T04:29:05.328Z,13.33
2017-08-02T04:30:15.598Z,13.31
2017-08-02T04:31:25.237Z,13.28
2017-08-02T04:32:35.500Z,13.21
2017-08-02T04:33:45.771Z,13.37
2017-08-02T04:34:56.033Z,13.36
2017-08-02T04:36:05.995Z,13.37
2017-08-02T04:37:16.275Z,13.36
2017-08-02T04:38:26.552Z,13.4
2017-08-02T04:39:36.822Z,13.49
2017-08-02T04:40:47.084Z,13.52
2017-08-02T04:41:57.355Z,13.52
2017-08-02T04:43:07.626Z,13.55
2017-08-02T04:44:17.903Z,13.58
2017-08-02T04:45:28.168Z,13.62
2017-08-02T04:46:38.451Z,13.62
2017-08-02T04:47:48.724Z,13.78
2017-08-02T04:48:58.992Z,13.7
2017-08-02T04:50:08.633Z,13.87
2017-08-02T04:51:18.592Z,13.79
2017-08-02T04:52:28.861Z,13.76
2017-08-02T04:53:38.856Z,13.79
2017-08-02T04:54:48.806Z,13.85
2017-08-02T04:55:58.760Z,13.95
2017-08-02T04:57:09.043Z,13.95
2017-08-02T04:58:19.310Z,14.11
2017-08-02T04:59:28.950Z,14.12
2017-08-02T05:00:38.905Z,14.08
2017-08-02T05:01:49.185Z,14.12
2017-08-02T05:02:59.147Z,14.2
2017-08-02T05:04:09.109Z,14.26
2017-08-02T05:05:19.067Z,14.26
2017-08-02T05:06:29.026Z,14.33
2017-08-02T05:07:39.302Z,14.33
2017-08-02T05:08:49.574Z,14.43
2017-08-02T05:09:59.844Z,14.38
2017-08-02T05:11:10.116Z,14.37
2017-08-02T05:12:20.087Z,14.52
2017-08-02T05:13:30.360Z,14.58
2017-08-02T05:14:40.628Z,14.55
2017-08-02T05:15:50.585Z,14.53
2017-08-02T05:17:00.854Z,14.63
2017-08-02T05:18:10.813Z,14.66
2017-08-02T05:19:21.097Z,14.62
2017-08-02T05:20:31.369Z,14.73
2017-08-02T05:21:41.641Z,14.87
2017-08-02T05:22:51.602Z,14.87
2017-08-02T05:24:01.871Z,14.97
2017-08-02T05:25:11.824Z,14.99
2017-08-02T05:26:22.107Z,15.08
2017-08-02T05:27:32.379Z,15.04
2017-08-02T05:28:42.651Z,15.15
2017-08-02T05:29:52.928Z,15.23
2017-08-02T05:31:03.200Z,15.14
2017-08-02T05:32:13.477Z,15.26
2017-08-02T05:33:23.757Z,15.29
2017-08-02T05:34:34.030Z,15.32
2017-08-02T05:35:44.306Z,15.32
2017-08-02T05:36:54.264Z,15.43
2017-08-02T05:38:04.545Z,15.39
2017-08-02T05:39:14.815Z,15.43
2017-08-02T05:40:25.084Z,15.39
2017-08-02T05:41:35.356Z,15.47
2017-08-02T05:42:45.628Z,15.57
2017-08-02T05:43:55.273Z,15.54
2017-08-02T05:45:05.229Z,15.62
2017-08-02T05:46:15.518Z,15.62
2017-08-02T05:47:25.789Z,15.62
2017-08-02T05:48:36.077Z,15.57
2017-08-02T05:49:46.353Z,15.67
2017-08-02T05:50:56.315Z,15.6
2017-08-02T05:52:06.587Z,15.67
2017-08-02T05:53:16.857Z,15.67
2017-08-02T05:54:27.129Z,15.8
2017-08-02T05:55:37.401Z,15.75
2017-08-02T05:56:47.681Z,15.8
2017-08-02T05:57:57.652Z,15.84
2017-08-02T05:59:07.628Z,15.85
2017-08-02T06:00:17.900Z,15.83
2017-08-02T06:01:28.181Z,15.8
2017-08-02T06:02:38.139Z,15.83
2017-08-02T06:03:48.101Z,15.76
2017-08-02T06:04:58.056Z,15.87
2017-08-02T06:06:08.331Z,15.92
2017-08-02T06:07:18.612Z,15.88
2017-08-02T06:08:28.881Z,15.88
2017-08-02T06:09:38.841Z,15.84
2017-08-02T06:10:49.112Z,15.98
2017-08-02T06:11:59.072Z,15.9
2017-08-02T06:13:09.364Z,15.92
2017-08-02T06:14:19.318Z,16.02
2017-08-02T06:15:29.274Z,16.05
2017-08-02T06:16:39.545Z,15.94
2017-08-02T06:17:49.817Z,16.02
2017-08-02T06:18:59.772Z,16
2017-08-02T06:20:09.732Z,16.02
2017-08-02T06:21:20.145Z,16.08
2017-08-02T06:22:30.172Z,16.02
2017-08-02T06:23:40.619Z,16.08
2017-08-02T06:24:50.962Z,16.03
2017-08-02T06:26:00.924Z,16.02
2017-08-02T06:27:11.199Z,16
2017-08-02T06:28:20.841Z,16.05
2017-08-02T06:29:30.814Z,15.99
2017-08-02T06:30:41.098Z,15.96
2017-08-02T06:31:51.075Z,16.09
2017-08-02T06:33:01.355Z,16.09
2017-08-02T06:34:11.640Z,16.1
2017-08-02T06:35:21.602Z,16.09
2017-08-02T06:36:31.877Z,16
2017-08-02T06:37:42.150Z,16.1
2017-08-02T06:38:52.420Z,16.05
2017-08-02T06:40:02.692Z,16.09
2017-08-02T06:41:13.006Z,16.1
2017-08-02T06:42:22.967Z,16.06
2017-08-02T06:43:33.244Z,16.09
2017-08-02T06:44:43.519Z,16.13
2017-08-02T06:45:53.477Z,16.03
2017-08-02T06:47:03.746Z,16.06
2017-08-02T06:48:14.025Z,16.06
2017-08-02T06:49:23.983Z,16.03
2017-08-02T06:50:33.939Z,16.09
2017-08-02T06:51:44.207Z,16.12
2017-08-02T06:52:54.513Z,16.06
2017-08-02T06:54:04.467Z,16.05
2017-08-02T06:55:14.740Z,16.16
2017-08-02T06:56:24.696Z,16.09
2017-08-02T06:57:34.660Z,16.16
2017-08-02T06:58:44.616Z,16.21
2017-08-02T06:59:54.579Z,16.12
2017-08-02T07:01:04.540Z,16.12
2017-08-02T07:02:14.497Z,16.16
2017-08-02T07:03:24.768Z,16.05
2017-08-02T07:04:35.038Z,16.09
2017-08-02T07:05:45.314Z,16.06
2017-08-02T07:06:55.595Z,16.05
2017-08-02T07:08:05.862Z,16.05
2017-08-02T07:09:15.828Z,16.09
2017-08-02T07:10:26.097Z,16.18
2017-08-02T07:11:36.063Z,16.22
2017-08-02T07:12:46.333Z,16.25
2017-08-02T07:13:56.639Z,16.36
2017-08-02T07:15:06.913Z,16.36
2017-08-02T07:16:17.190Z,16.46
2017-08-02T07:17:27.460Z,16.4
2017-08-02T07:18:37.443Z,16.44
2017-08-02T07:19:47.397Z,16.51
2017-08-02T07:20:57.354Z,16.5
2017-08-02T07:22:07.625Z,16.5
2017-08-02T07:23:17.604Z,16.46
2017-08-02T07:24:27.872Z,16.55
2017-08-02T07:25:37.522Z,16.55
2017-08-02T07:26:47.795Z,16.58
2017-08-02T07:27:57.749Z,16.55
2017-08-02T07:29:07.711Z,16.66
2017-08-02T07:30:17.671Z,16.66
2017-08-02T07:31:27.946Z,16.57
2017-08-02T07:32:38.217Z,16.51
2017-08-02T07:33:48.492Z,16.64
2017-08-02T07:34:58.137Z,16.65
2017-08-02T07:36:07.783Z,16.64
2017-08-02T07:37:17.743Z,16.54
2017-08-02T07:38:28.271Z,16.57
2017-08-02T07:39:38.546Z,16.72
2017-08-02T07:40:48.827Z,16.59
2017-08-02T07:41:58.789Z,16.66
2017-08-02T07:43:08.745Z,16.68
2017-08-02T07:44:21.024Z,16.72
2017-08-02T07:45:30.977Z,16.77
2017-08-02T07:46:41.246Z,16.74
2017-08-02T07:47:51.515Z,16.73
2017-08-02T07:49:00.846Z,16.65
2017-08-02T07:50:10.811Z,16.72
2017-08-02T07:51:21.079Z,16.66
2017-08-02T07:52:31.038Z,16.73
2017-08-02T07:53:41.327Z,16.76
2017-08-02T07:54:51.604Z,16.69
2017-08-02T07:56:01.877Z,16.82
2017-08-02T07:57:12.151Z,16.8
2017-08-02T07:58:22.421Z,16.84
2017-08-02T07:59:32.071Z,16.86
2017-08-02T08:00:42.339Z,16.92
2017-08-02T08:01:52.297Z,16.95
2017-08-02T08:03:02.257Z,16.98
2017-08-02T08:04:12.224Z,17.04
2017-08-02T08:05:22.506Z,17.12
2017-08-02T08:06:32.788Z,17.07
2017-08-02T08:07:43.070Z,17.1
2017-08-02T08:08:53.340Z,17.13
2017-08-02T08:10:03.615Z,17.23
2017-08-02T08:11:13.890Z,17.14
2017-08-02T08:12:23.846Z,17.14
2017-08-02T08:13:34.119Z,17.28
2017-08-02T08:14:44.387Z,17.24
2017-08-02T08:15:54.347Z,17.19
2017-08-02T08:17:04.304Z,17.23
2017-08-02T08:18:14.582Z,17.23
2017-08-02T08:19:24.857Z,17.34
2017-08-02T08:20:34.820Z,17.39
2017-08-02T08:21:45.097Z,17.46
2017-08-02T08:22:55.375Z,17.37
2017-08-02T08:24:05.653Z,17.37
2017-08-02T08:25:15.629Z,17.35
2017-08-02T08:26:25.610Z,17.24
2017-08-02T08:27:34.946Z,17.28
2017-08-02T08:28:45.220Z,17.2
2017-08-02T08:29:55.494Z,17.16
2017-08-02T08:31:05.451Z,17.14
2017-08-02T08:32:15.736Z,17.1
2017-08-02T08:33:26.010Z,16.97
2017-08-02T08:34:35.963Z,16.95
2017-08-02T08:35:46.237Z,16.98
2017-08-02T08:36:56.505Z,17.05
2017-08-02T08:38:06.479Z,17.05
2017-08-02T08:39:16.756Z,17.09
2017-08-02T08:40:26.716Z,17.22
2017-08-02T08:41:36.671Z,17.1
2017-08-02T08:42:46.946Z,17.07
2017-08-02T08:43:56.589Z,17.02
2017-08-02T08:45:06.866Z,16.97
2017-08-02T08:46:17.159Z,16.99
2017-08-02T08:47:26.805Z,16.94
2017-08-02T08:48:37.091Z,16.87
2017-08-02T08:49:47.060Z,16.91
2017-08-02T08:50:56.705Z,16.87
2017-08-02T08:52:06.978Z,16.89
2017-08-02T08:53:17.249Z,16.84
2017-08-02T08:54:27.520Z,16.92
2017-08-02T08:55:37.482Z,16.89
2017-08-02T08:56:47.749Z,16.94
2017-08-02T08:57:57.714Z,16.94
2017-08-02T08:59:07.987Z,17.02
2017-08-02T09:00:18.265Z,16.99
2017-08-02T09:01:28.540Z,17.04
2017-08-02T09:02:38.814Z,17.01
2017-08-02T09:03:48.777Z,17.12
2017-08-02T09:04:58.734Z,17.09
2017-08-02T09:06:09.003Z,17.13
2017-08-02T09:07:18.996Z,17.09
2017-08-02T09:08:28.947Z,17.16
2017-08-02T09:09:39.226Z,17.13
2017-08-02T09:10:49.181Z,17.16
2017-08-02T09:11:59.464Z,17.16
2017-08-02T09:13:09.743Z,17.16
2017-08-02T09:14:20.040Z,17.31
2017-08-02T09:15:30.314Z,17.2
2017-08-02T09:16:40.610Z,17.37
2017-08-02T09:17:50.878Z,17.27
2017-08-02T09:19:01.176Z,17.24
2017-08-02T09:20:11.453Z,17.32
2017-08-02T09:21:21.408Z,17.2
2017-08-02T09:22:31.386Z,17.23
2017-08-02T09:23:41.039Z,17.35
2017-08-02T09:24:50.686Z,17.34
2017-08-02T09:26:00.333Z,17.32
2017-08-02T09:27:10.605Z,17.42
2017-08-02T09:28:20.570Z,17.59
2017-08-02T09:29:30.547Z,17.66
2017-08-02T09:30:40.503Z,17.72
2017-08-02T09:31:50.779Z,17.8
2017-08-02T09:33:01.073Z,17.82
2017-08-02T09:34:11.353Z,17.76
2017-08-02T09:35:21.313Z,17.91
2017-08-02T09:36:31.273Z,17.86
2017-08-02T09:37:41.547Z,17.98
2017-08-02T09:38:51.819Z,17.97
2017-08-02T09:40:01.785Z,18
2017-08-02T09:41:11.429Z,18.05
2017-08-02T09:42:21.705Z,18.06
2017-08-02T09:43:31.664Z,18.08
2017-08-02T09:44:41.626Z,18.12
2017-08-02T09:45:51.901Z,18.21
2017-08-02T09:47:02.174Z,18.15
2017-08-02T09:48:12.451Z,18.11
2017-08-02T09:49:22.724Z,18.03
2017-08-02T09:50:32.688Z,18.05
2017-08-02T09:51:42.339Z,18.16
2017-08-02T09:52:52.624Z,18.16
2017-08-02T09:54:02.593Z,18.31
2017-08-02T09:55:12.880Z,18.46
2017-08-02T09:56:22.528Z,18.31
2017-08-02T09:57:32.803Z,18.3
2017-08-02T09:58:43.077Z,18.23
2017-08-02T09:59:53.359Z,18.3
2017-08-02T10:01:03.633Z,18.21
2017-08-02T10:02:13.588Z,18.26
2017-08-02T10:03:23.231Z,18.3
2017-08-02T10:04:32.870Z,18.41
2017-08-02T10:05:42.511Z,18.19
2017-08-02T10:06:52.782Z,18.23
2017-08-02T10:08:03.064Z,18.23
2017-08-02T10:09:13.024Z,18.24
2017-08-02T10:10:22.982Z,18.33
2017-08-02T10:11:32.941Z,18.33
2017-08-02T10:12:43.216Z,18.43
2017-08-02T10:13:53.489Z,18.37
2017-08-02T10:15:03.766Z,18.37
2017-08-02T10:16:14.061Z,18.34
2017-08-02T10:17:24.344Z,18.55
2017-08-02T10:18:34.622Z,18.51
2017-08-02T10:19:44.583Z,18.42
2017-08-02T10:20:53.922Z,18.55
2017-08-02T10:22:04.202Z,18.58
2017-08-02T10:23:14.167Z,18.66
2017-08-02T10:24:24.446Z,18.68
2017-08-02T10:25:34.725Z,18.82
2017-08-02T10:26:45.001Z,18.86
2017-08-02T10:27:54.643Z,18.82
2017-08-02T10:29:04.605Z,18.83
2017-08-02T10:30:14.871Z,18.79
2017-08-02T10:31:24.830Z,18.86
2017-08-02T10:32:34.795Z,18.81
2017-08-02T10:33:45.062Z,18.79
2017-08-02T10:34:54.714Z,18.76
2017-08-02T10:36:04.673Z,18.79
2017-08-02T10:37:14.637Z,18.82
2017-08-02T10:38:24.914Z,18.79
2017-08-02T10:39:35.190Z,18.79
2017-08-02T10:40:45.467Z,18.91
2017-08-02T10:41:55.736Z,18.96
2017-08-02T10:43:05.695Z,19
2017-08-02T10:44:15.975Z,18.91
2017-08-02T10:45:26.250Z,19
2017-08-02T10:46:35.894Z,19.16
2017-08-02T10:47:45.854Z,19.17
2017-08-02T10:48:56.135Z,19.15
2017-08-02T10:50:06.416Z,19.22
2017-08-02T10:51:16.702Z,19.16
2017-08-02T10:52:26.979Z,19.12
2017-08-02T10:53:36.941Z,19.26
2017-08-02T10:54:46.905Z,19.27
2017-08-02T10:55:56.865Z,19.37
2017-08-02T10:57:07.170Z,19.37
2017-08-02T10:58:17.132Z,19.59
2017-08-02T10:59:27.096Z,19.45
2017-08-02T11:00:36.742Z,19.47
2017-08-02T11:01:47.011Z,19.57
2017-08-02T11:02:56.657Z,19.63
2017-08-02T11:04:06.936Z,19.7
2017-08-02T11:05:16.896Z,19.81
2017-08-02T11:06:26.861Z,19.94
2017-08-02T11:07:37.138Z,19.92
2017-08-02T11:08:47.422Z,20
2017-08-02T11:09:57.066Z,19.94
2017-08-02T11:11:07.024Z,19.94
2017-08-02T11:12:16.988Z,20.15
2017-08-02T11:13:27.263Z,20.24
2017-08-02T11:14:39.796Z,20.3
2017-08-02T11:15:50.084Z,20.4
2017-08-02T11:16:59.729Z,20.49
2017-08-02T11:18:10.006Z,20.46
2017-08-02T11:19:20.280Z,20.48
2017-08-02T11:20:30.560Z,20.7
2017-08-02T11:21:40.210Z,20.78
2017-08-02T11:22:50.178Z,20.95
2017-08-02T11:24:00.460Z,21.14
2017-08-02T11:25:10.809Z,21.07
2017-08-02T11:26:21.087Z,21.32
2017-08-02T11:27:31.357Z,21.48
2017-08-02T11:28:41.006Z,21.62
2017-08-02T11:29:51.289Z,21.81
2017-08-02T11:31:01.559Z,22.01
2017-08-02T11:32:11.217Z,22.14
2017-08-02T11:33:21.494Z,22.12
2017-08-02T11:34:31.769Z,22.28
2017-08-02T11:35:42.045Z,22.06
2017-08-02T11:36:51.377Z,21.88
2017-08-02T11:38:01.030Z,21.83
2017-08-02T11:39:11.308Z,21.41
2017-08-02T11:40:20.952Z,21.11
2017-08-02T11:41:31.251Z,20.82
2017-08-02T11:42:41.216Z,20.48
2017-08-02T11:43:51.499Z,20.5
2017-08-02T11:45:01.469Z,20.29
2017-08-02T11:46:11.447Z,20.26
2017-08-02T11:47:21.727Z,20.02
2017-08-02T11:48:32.004Z,19.78
2017-08-02T11:49:42.285Z,19.48
2017-08-02T11:50:51.932Z,19
2017-08-02T11:52:01.894Z,18.68
2017-08-02T11:53:11.866Z,18.48
2017-08-02T11:54:22.143Z,18
2017-08-02T11:55:32.102Z,17.38
2017-08-02T11:56:42.373Z,16.92
2017-08-02T11:57:52.022Z,16.72
2017-08-02T11:59:01.992Z,16.59
2017-08-02T12:00:12.268Z,16.47
2017-08-02T12:01:22.543Z,16.25
2017-08-02T12:02:32.823Z,16.05
2017-08-02T12:03:43.099Z,15.84
2017-08-02T12:04:53.369Z,15.66
2017-08-02T12:06:03.645Z,15.45
2017-08-02T12:07:13.921Z,15.43
2017-08-02T12:08:24.191Z,15.19
2017-08-02T12:09:34.161Z,15.23
2017-08-02T12:10:43.805Z,15.11
2017-08-02T12:11:53.762Z,15.04
2017-08-02T12:13:03.413Z,15.05
2017-08-02T12:14:13.698Z,14.89
2017-08-02T12:15:23.672Z,14.93
2017-08-02T12:16:33.939Z,14.92
2017-08-02T12:17:43.900Z,14.92
2017-08-02T12:18:53.857Z,14.86
2017-08-02T12:20:03.817Z,14.99
2017-08-02T12:21:14.095Z,14.96
2017-08-02T12:22:24.364Z,14.94
2017-08-02T12:23:34.341Z,14.94
2017-08-02T12:24:44.610Z,14.96
2017-08-02T12:25:54.632Z,15.05
2017-08-02T12:27:04.909Z,15.12
2017-08-02T12:28:14.873Z,15.07
2017-08-02T12:29:24.835Z,15.08
2017-08-02T12:30:34.791Z,15.14
2017-08-02T12:31:45.062Z,15.11
2017-08-02T12:32:55.019Z,15.32
2017-08-02T12:34:05.289Z,15.18
2017-08-02T12:35:15.556Z,15.26
2017-08-02T12:36:25.829Z,15.26
2017-08-02T12:37:36.096Z,15.41
2017-08-02T12:38:46.053Z,15.32
2017-08-02T12:39:56.013Z,15.5
2017-08-02T12:41:05.974Z,15.5
2017-08-02T12:42:15.934Z,15.6
2017-08-02T12:43:25.573Z,15.69
2017-08-02T12:44:35.839Z,15.76
2017-08-02T12:45:46.120Z,15.81
2017-08-02T12:46:56.396Z,15.81
2017-08-02T12:48:06.682Z,15.94
2017-08-02T12:49:16.953Z,16.02
2017-08-02T12:50:26.909Z,16.18
2017-08-02T12:51:36.870Z,16.26
2017-08-02T12:52:46.840Z,16.59
2017-08-02T12:53:57.120Z,16.64
2017-08-02T12:55:07.092Z,17.05
2017-08-02T12:56:17.051Z,17.32
2017-08-02T12:57:27.323Z,17.8
2017-08-02T12:58:37.288Z,18.06
2017-08-02T12:59:47.562Z,18.55
2017-08-02T13:00:57.518Z,18.78
2017-08-02T13:02:07.165Z,19.09
2017-08-02T13:03:17.438Z,19.3
2017-08-02T13:04:27.108Z,19.56
2017-08-02T13:05:37.064Z,19.62
2017-08-02T13:06:47.034Z,19.92
2017-08-02T13:07:56.994Z,20.24
2017-08-02T13:09:07.275Z,20.56
2017-08-02T13:10:16.929Z,20.83
2017-08-02T13:11:26.889Z,20.98
2017-08-02T13:12:36.236Z,21.2
2017-08-02T13:13:45.905Z,21.33
2017-08-02T13:14:55.555Z,21.5
2017-08-02T13:16:05.837Z,21.63
2017-08-02T13:17:16.111Z,21.74
2017-08-02T13:18:26.079Z,21.78
2017-08-02T13:19:36.355Z,22.08
2017-08-02T13:20:46.317Z,22.31
2017-08-02T13:21:56.344Z,22.31
2017-08-02T13:23:06.316Z,22.33
2017-08-02T13:24:16.602Z,22.49
2017-08-02T13:25:26.883Z,22.86
2017-08-02T13:26:36.846Z,23.32
2017-08-02T13:27:47.135Z,23.67
2017-08-02T13:28:57.096Z,24.1
2017-08-02T13:30:07.064Z,24.66
2017-08-02T13:31:17.350Z,25.18
2017-08-02T13:32:27.319Z,25.62
2017-08-02T13:33:36.680Z,25.77
2017-08-02T13:34:46.965Z,26.15
2017-08-02T13:35:56.931Z,26.16
2017-08-02T13:37:06.901Z,26.44
2017-08-02T13:38:16.550Z,26.63
2017-08-02T13:39:26.832Z,27.26
2017-08-02T13:40:36.801Z,27.9
2017-08-02T13:41:46.774Z,28.31
2017-08-02T13:42:57.065Z,28.77
2017-08-02T13:44:07.347Z,29.21
2017-08-02T13:45:17.326Z,29.53
2017-08-02T13:46:27.610Z,29.67
2017-08-02T13:47:37.579Z,30.03
2017-08-02T13:48:47.550Z,30.08
2017-08-02T13:49:57.839Z,30.11
2017-08-02T13:51:07.810Z,30.24
2017-08-02T13:52:18.098Z,30.63
2017-08-02T13:53:28.390Z,30.43
2017-08-02T13:54:38.675Z,30.2
2017-08-02T13:55:48.961Z,30.46
2017-08-02T13:56:59.245Z,30.83
2017-08-02T13:58:09.214Z,31.48
2017-08-02T13:59:19.193Z,31.67
2017-08-02T14:00:29.480Z,31.69
2017-08-02T14:01:39.140Z,31.86
2017-08-02T14:02:49.429Z,31.86
2017-08-02T14:03:59.094Z,32.05
2017-08-02T14:05:08.752Z,32.24
2017-08-02T14:06:19.049Z,32.54
2017-08-02T14:07:29.025Z,32.26
2017-08-02T14:08:39.007Z,31.79
2017-08-02T14:09:49.301Z,31.47
2017-08-02T14:10:59.274Z,31.74
2017-08-02T14:12:09.250Z,31.77
2017-08-02T14:13:19.532Z,31.85
2017-08-02T14:14:29.189Z,31.78
2017-08-02T14:15:39.481Z,32.08
2017-08-02T14:16:49.140Z,31.74
2017-08-02T14:17:59.429Z,31.63
2017-08-02T14:19:09.717Z,32.01
2017-08-02T14:20:20.001Z,32.23
2017-08-02T14:21:29.657Z,32.66
2017-08-02T14:22:39.318Z,32.78
2017-08-02T14:23:49.297Z,32.59
2017-08-02T14:24:59.291Z,31.87
2017-08-02T14:26:09.268Z,30.59
2017-08-02T14:27:19.570Z,29.65
2017-08-02T14:28:29.549Z,29.02
2017-08-02T14:29:39.839Z,28.67
2017-08-02T14:30:50.125Z,28.37
2017-08-02T14:32:00.105Z,28.03
2017-08-02T14:33:10.392Z,27.68
2017-08-02T14:34:20.683Z,27.47
2017-08-02T14:35:30.967Z,27.3
2017-08-02T14:36:41.249Z,27.1
2017-08-02T14:37:51.531Z,26.89
2017-08-02T14:39:01.814Z,26.6
2017-08-02T14:40:11.784Z,26.42
2017-08-02T14:41:21.123Z,26.1
2017-08-02T14:42:31.104Z,25.88
2017-08-02T14:43:41.408Z,25.58
2017-08-02T14:44:51.699Z,25.15
2017-08-02T14:46:01.980Z,24.94
2017-08-02T14:47:11.945Z,24.37
2017-08-02T14:48:21.911Z,23.84
2017-08-02T14:49:31.875Z,23.42
2017-08-02T14:50:41.843Z,23.39
2017-08-02T14:51:52.127Z,23.08
2017-08-02T14:53:01.776Z,22.83
2017-08-02T14:54:12.054Z,22.56
2017-08-02T14:55:22.331Z,22.47
2017-08-02T14:56:31.984Z,22.26
2017-08-02T14:57:42.258Z,22.03
2017-08-02T14:58:52.222Z,21.88
2017-08-02T15:00:02.181Z,21.7
2017-08-02T15:01:12.471Z,21.7
2017-08-02T15:02:22.762Z,21.47
2017-08-02T15:03:32.733Z,21.35
2017-08-02T15:04:42.694Z,21.19
2017-08-02T15:05:52.661Z,21.13